createdAt,value
2023-09-16T00:01:44.292Z,15.13
2023-09-16T00:04:12.513Z,10.50
2023-09-16T00:06:39.214Z,11.95
2023-09-16T00:09:05.807Z,11.23
2023-09-16T00:11:33.318Z,12.35
2023-09-16T00:13:59.853Z,13.57
2023-09-16T00:16:26.410Z,12.33
2023-09-16T00:18:53.178Z,11.73
2023-09-16T00:21:19.868Z,12.82
2023-09-16T00:23:46.316Z,11.60
2023-09-16T00:26:14.706Z,12.48
2023-09-16T00:28:41.543Z,12.47
2023-09-16T00:31:08.912Z,13.50
2023-09-16T00:33:35.607Z,13.38
2023-09-16T00:36:02.187Z,12.48
2023-09-16T00:38:28.814Z,11.98
2023-09-16T00:40:55.447Z,13.43
2023-09-16T00:43:22.084Z,13.23
2023-09-16T00:45:48.773Z,13.93
2023-09-16T00:48:16.852Z,11.68
2023-09-16T00:50:44.592Z,13.63
2023-09-16T00:53:13.306Z,12.20
2023-09-16T00:55:40.092Z,13.60
2023-09-16T00:58:10.306Z,14.38
2023-09-16T01:00:37.607Z,12.98
2023-09-16T01:03:06.254Z,12.32
2023-09-16T01:05:34.533Z,11.60
2023-09-16T01:08:01.224Z,12.15
2023-09-16T01:10:27.898Z,12.02
2023-09-16T01:12:56.337Z,12.15
2023-09-16T01:15:26.012Z,12.50
2023-09-16T01:18:03.952Z,11.10
2023-09-16T01:20:30.771Z,10.52
2023-09-16T01:22:57.553Z,11.38
2023-09-16T01:25:30.772Z,11.77
2023-09-16T01:27:57.655Z,10.75
2023-09-16T01:30:29.980Z,12.93
2023-09-16T01:33:14.454Z,11.30
2023-09-16T01:35:42.808Z,11.57
2023-09-16T01:38:16.001Z,12.07
2023-09-16T01:40:45.032Z,12.70
2023-09-16T01:43:12.149Z,12.27
2023-09-16T01:45:45.810Z,11.68
2023-09-16T01:48:12.644Z,12.05
2023-09-16T01:50:39.354Z,11.55
2023-09-16T01:53:08.367Z,11.60
2023-09-16T01:55:35.879Z,10.93
2023-09-16T01:58:02.733Z,12.30
2023-09-16T02:00:29.479Z,11.38
2023-09-16T02:02:56.161Z,11.80
2023-09-16T02:05:22.745Z,12.25
2023-09-16T02:07:49.293Z,10.77
2023-09-16T02:10:16.185Z,11.73
2023-09-16T02:12:42.986Z,11.65
2023-09-16T02:15:10.979Z,10.13
2023-09-16T02:17:40.326Z,12.38
2023-09-16T02:20:11.141Z,11.73
2023-09-16T02:22:38.688Z,11.77
2023-09-16T02:25:05.657Z,12.35
2023-09-16T02:27:33.403Z,12.18
2023-09-16T02:30:00.153Z,12.93
2023-09-16T02:32:26.732Z,12.77
2023-09-16T02:34:53.344Z,12.60
2023-09-16T02:37:21.438Z,12.57
2023-09-16T02:39:48.122Z,12.32
2023-09-16T02:42:14.863Z,12.50
2023-09-16T02:44:41.428Z,12.70
2023-09-16T02:47:07.946Z,11.60
2023-09-16T02:49:34.483Z,13.18
2023-09-16T02:52:01.016Z,11.25
2023-09-16T02:54:28.516Z,13.40
2023-09-16T02:56:55.060Z,11.60
2023-09-16T02:59:21.551Z,11.98
2023-09-16T03:01:48.168Z,13.10
2023-09-16T03:04:14.780Z,12.02
2023-09-16T03:06:41.401Z,12.70
2023-09-16T03:09:08.011Z,11.73
2023-09-16T03:11:38.374Z,12.20
2023-09-16T03:14:04.921Z,12.38
2023-09-16T03:16:33.194Z,11.65
2023-09-16T03:19:00.082Z,12.38
2023-09-16T03:21:27.174Z,12.33
2023-09-16T03:23:53.712Z,12.43
2023-09-16T03:26:20.230Z,12.10
2023-09-16T03:28:47.935Z,11.65
2023-09-16T03:31:17.922Z,11.90
2023-09-16T03:33:44.574Z,12.53
2023-09-16T03:36:11.171Z,13.77
2023-09-16T03:38:48.429Z,12.93
2023-09-16T03:41:16.571Z,12.20
2023-09-16T03:43:43.692Z,12.82
2023-09-16T03:46:10.823Z,12.40
2023-09-16T03:48:37.465Z,13.32
2023-09-16T03:51:08.080Z,12.95
2023-09-16T03:56:10.049Z,11.93
2023-09-16T03:58:37.138Z,13.43
2023-09-16T04:01:03.834Z,11.98
2023-09-16T04:03:31.621Z,12.20
2023-09-16T04:05:59.582Z,11.95
2023-09-16T04:08:30.767Z,12.20
2023-09-16T04:11:07.595Z,11.43
2023-09-16T04:13:34.285Z,12.75
2023-09-16T04:16:00.802Z,12.18
2023-09-16T04:18:27.343Z,11.93
2023-09-16T04:20:56.632Z,12.93
2023-09-16T04:23:24.034Z,11.90
2023-09-16T04:26:01.781Z,12.40
2023-09-16T04:28:29.595Z,13.88
2023-09-16T04:30:57.378Z,12.45
2023-09-16T04:33:24.091Z,13.00
2023-09-16T04:35:52.178Z,12.90
2023-09-16T04:38:19.994Z,12.18
2023-09-16T04:40:50.418Z,13.02
2023-09-16T04:43:17.167Z,13.68
2023-09-16T04:45:44.973Z,12.40
2023-09-16T04:48:14.493Z,12.20
2023-09-16T04:50:43.403Z,13.02
2023-09-16T04:53:11.090Z,13.70
2023-09-16T04:55:38.322Z,12.23
2023-09-16T04:58:05.155Z,13.07
2023-09-16T05:00:34.688Z,14.87
2023-09-16T05:03:01.968Z,13.43
2023-09-16T05:05:28.671Z,13.00
2023-09-16T05:07:55.317Z,12.68
2023-09-16T05:10:22.182Z,12.70
2023-09-16T05:12:48.706Z,13.50
2023-09-16T05:15:15.415Z,11.88
2023-09-16T05:17:42.547Z,13.38
2023-09-16T05:20:10.033Z,14.32
2023-09-16T05:22:36.632Z,11.93
2023-09-16T05:25:06.953Z,11.87
2023-09-16T05:27:33.734Z,12.65
2023-09-16T05:30:02.975Z,12.93
2023-09-16T05:32:30.656Z,12.88
2023-09-16T05:34:57.265Z,12.60
2023-09-16T05:37:24.015Z,13.67
2023-09-16T05:39:50.535Z,13.82
2023-09-16T05:42:17.044Z,13.07
2023-09-16T05:44:43.569Z,13.45
2023-09-16T05:47:10.258Z,11.95
2023-09-16T05:49:37.006Z,12.77
2023-09-16T05:52:03.872Z,13.00
2023-09-16T05:54:30.411Z,13.32
2023-09-16T05:56:56.972Z,12.05
2023-09-16T05:59:24.770Z,13.55
2023-09-16T06:01:51.672Z,12.70
2023-09-16T06:04:18.276Z,14.43
2023-09-16T06:06:45.099Z,13.43
2023-09-16T06:09:11.687Z,13.07
2023-09-16T06:11:38.307Z,12.77
2023-09-16T06:14:07.295Z,13.00
2023-09-16T06:16:34.317Z,12.23
2023-09-16T06:19:01.070Z,13.60
2023-09-16T06:21:27.637Z,12.98
2023-09-16T06:23:54.249Z,12.63
2023-09-16T06:26:20.774Z,18.53
2023-09-16T06:28:47.727Z,13.43
2023-09-16T06:31:14.593Z,12.40
2023-09-16T06:33:41.443Z,12.07
2023-09-16T06:36:08.124Z,13.45
2023-09-16T06:38:34.667Z,14.57
2023-09-16T06:41:01.297Z,12.48
2023-09-16T06:43:28.090Z,13.43
2023-09-16T06:45:54.835Z,13.13
2023-09-16T06:48:21.501Z,13.52
2023-09-16T06:50:48.166Z,13.30
2023-09-16T06:53:14.749Z,13.65
2023-09-16T06:55:41.309Z,13.55
2023-09-16T07:00:52.524Z,14.23
2023-09-16T07:03:20.395Z,13.77
2023-09-16T07:05:47.747Z,14.10
2023-09-16T07:08:18.711Z,14.40
2023-09-16T07:10:45.481Z,13.00
2023-09-16T07:13:12.093Z,13.45
2023-09-16T07:15:39.378Z,14.90
2023-09-16T07:18:06.165Z,16.10
2023-09-16T07:20:32.767Z,18.52
2023-09-16T07:22:59.395Z,15.88
2023-09-16T07:25:25.956Z,16.50
2023-09-16T07:27:55.664Z,14.13
2023-09-16T07:30:22.823Z,15.63
2023-09-16T07:32:51.449Z,12.70
2023-09-16T07:35:18.541Z,14.70
2023-09-16T07:37:45.188Z,13.90
2023-09-16T07:40:12.392Z,12.87
2023-09-16T07:42:39.180Z,12.82
2023-09-16T07:45:06.304Z,13.10
2023-09-16T07:47:33.921Z,13.95
2023-09-16T07:50:00.873Z,13.02
2023-09-16T07:52:27.446Z,13.13
2023-09-16T07:54:57.163Z,12.75
2023-09-16T07:57:23.688Z,15.02
2023-09-16T07:59:50.376Z,12.20
2023-09-16T08:02:17.570Z,12.13
2023-09-16T08:04:44.244Z,11.43
2023-09-16T08:07:10.946Z,11.73
2023-09-16T08:09:37.647Z,11.82
2023-09-16T08:12:04.518Z,10.80
2023-09-16T08:14:31.139Z,13.05
2023-09-16T08:16:59.513Z,12.40
2023-09-16T08:19:26.212Z,10.73
2023-09-16T08:21:53.342Z,9.68
2023-09-16T08:24:19.970Z,10.77
2023-09-16T08:26:46.575Z,9.57
2023-09-16T08:29:13.167Z,10.93
2023-09-16T08:31:39.904Z,12.38
2023-09-16T08:34:06.905Z,9.95
2023-09-16T08:36:33.486Z,9.38
2023-09-16T08:39:00.059Z,9.40
2023-09-16T08:41:40.973Z,16.17
2023-09-16T08:44:10.501Z,9.60
2023-09-16T08:46:44.977Z,10.63
2023-09-16T08:49:14.594Z,11.63
2023-09-16T08:51:44.677Z,9.10
2023-09-16T08:54:12.532Z,9.50
2023-09-16T08:56:41.346Z,17.95
2023-09-16T08:59:08.003Z,10.98
2023-09-16T09:01:35.039Z,8.60
2023-09-16T09:04:02.308Z,10.00
2023-09-16T09:06:40.071Z,9.80
2023-09-16T09:09:07.819Z,8.95
2023-09-16T09:11:35.335Z,13.20
2023-09-16T09:14:02.558Z,12.70
2023-09-16T09:16:30.819Z,9.57
2023-09-16T09:18:58.616Z,9.67
2023-09-16T09:21:26.439Z,12.73
2023-09-16T09:23:53.252Z,11.02
2023-09-16T09:26:19.796Z,10.25
2023-09-16T09:28:48.320Z,9.38
2023-09-16T09:31:15.543Z,11.17
2023-09-16T09:33:42.613Z,11.02
2023-09-16T09:36:19.459Z,11.35
2023-09-16T09:38:47.587Z,8.98
2023-09-16T09:41:15.779Z,11.20
2023-09-16T09:43:42.511Z,8.73
2023-09-16T09:46:09.544Z,7.00
2023-09-16T09:48:38.260Z,5.25
2023-09-16T09:51:09.573Z,5.95
2023-09-16T09:53:37.694Z,5.18
2023-09-16T09:56:04.404Z,4.20
2023-09-16T09:58:31.516Z,4.47
2023-09-16T10:00:58.627Z,6.85
2023-09-16T10:03:25.405Z,4.30
2023-09-16T10:05:52.089Z,4.30
2023-09-16T10:08:18.640Z,4.43
2023-09-16T10:10:48.084Z,6.72
2023-09-16T10:13:16.381Z,5.00
2023-09-16T10:15:43.153Z,7.57
2023-09-16T10:18:10.001Z,5.63
2023-09-16T10:20:39.592Z,5.20
2023-09-16T10:23:06.658Z,8.45
2023-09-16T10:25:36.171Z,10.48
2023-09-16T10:28:07.428Z,8.45
2023-09-16T10:30:36.085Z,6.13
2023-09-16T10:33:07.807Z,7.13
2023-09-16T10:35:38.420Z,6.90
2023-09-16T10:38:07.356Z,7.82
2023-09-16T10:40:34.144Z,6.55
2023-09-16T10:43:03.687Z,6.40
2023-09-16T10:45:31.117Z,7.70
2023-09-16T10:48:00.702Z,6.90
2023-09-16T10:50:31.262Z,5.75
2023-09-16T10:53:16.286Z,8.60
2023-09-16T10:56:02.008Z,6.90
2023-09-16T10:58:50.006Z,10.77
2023-09-16T11:01:48.230Z,7.43
2023-09-16T11:04:17.606Z,4.68
2023-09-16T11:06:48.774Z,7.40
2023-09-16T11:09:16.685Z,4.35
2023-09-16T11:11:43.857Z,5.30
2023-09-16T11:14:11.820Z,4.43
2023-09-16T11:16:46.064Z,4.70
2023-09-16T11:19:15.812Z,5.05
2023-09-16T11:21:44.339Z,4.70
2023-09-16T11:24:12.949Z,5.00
2023-09-16T11:26:40.359Z,4.10
2023-09-16T11:29:39.356Z,3.95
2023-09-16T11:32:06.556Z,4.03
2023-09-16T11:34:33.505Z,6.57
2023-09-16T11:37:02.481Z,4.30
2023-09-16T11:39:37.566Z,4.85
2023-09-16T11:42:04.485Z,6.93
2023-09-16T11:44:32.142Z,5.43
2023-09-16T11:47:00.236Z,5.93
2023-09-16T11:49:26.918Z,4.40
2023-09-16T11:51:54.374Z,5.63
2023-09-16T11:54:21.033Z,4.60
2023-09-16T11:56:47.629Z,4.45
2023-09-16T11:59:14.346Z,4.32
2023-09-16T12:01:42.219Z,4.10
2023-09-16T12:04:11.825Z,7.15
2023-09-16T12:06:39.789Z,7.20
2023-09-16T12:09:09.830Z,4.35
2023-09-16T12:11:38.637Z,3.63
2023-09-16T12:14:08.988Z,3.23
2023-09-16T12:16:37.780Z,3.05
2023-09-16T12:19:05.702Z,2.90
2023-09-16T12:21:33.241Z,5.45
2023-09-16T12:24:00.674Z,3.20
2023-09-16T12:26:28.717Z,2.97
2023-09-16T12:28:55.372Z,4.25
2023-09-16T12:31:25.726Z,3.47
2023-09-16T12:33:56.583Z,3.58
2023-09-16T12:36:29.339Z,5.82
2023-09-16T12:39:00.168Z,2.33
2023-09-16T12:41:27.966Z,3.33
2023-09-16T12:43:57.196Z,3.97
2023-09-16T12:46:26.709Z,3.53
2023-09-16T12:48:54.120Z,3.03
2023-09-16T12:51:22.148Z,5.13
2023-09-16T12:53:53.782Z,2.30
2023-09-16T12:56:20.447Z,3.20
2023-09-16T12:58:50.022Z,2.42
2023-09-16T13:01:21.687Z,3.10
2023-09-16T13:03:49.177Z,2.70
2023-09-16T13:06:16.279Z,5.18
2023-09-16T13:08:44.416Z,3.60
2023-09-16T13:11:12.263Z,4.10
2023-09-16T13:13:39.917Z,3.20
2023-09-16T13:16:07.980Z,2.60
2023-09-16T13:18:40.922Z,2.67
2023-09-16T13:21:07.893Z,2.80
2023-09-16T13:23:35.516Z,2.88
2023-09-16T13:26:13.029Z,2.60
2023-09-16T13:28:39.910Z,3.27
2023-09-16T13:31:06.685Z,2.40
2023-09-16T13:34:00.789Z,2.65
2023-09-16T13:36:32.283Z,2.63
2023-09-16T13:39:01.118Z,2.60
2023-09-16T13:41:28.312Z,2.53
2023-09-16T13:43:54.901Z,10.18
2023-09-16T13:46:21.644Z,2.70
2023-09-16T13:48:49.340Z,4.32
2023-09-16T13:51:16.417Z,2.30
2023-09-16T13:53:43.410Z,3.67
2023-09-16T13:56:11.706Z,3.33
2023-09-16T13:58:39.359Z,4.38
2023-09-16T14:01:06.790Z,3.40
2023-09-16T14:03:34.872Z,2.08
2023-09-16T14:06:01.565Z,2.00
2023-09-16T14:08:28.241Z,2.08
2023-09-16T14:10:54.777Z,2.20
2023-09-16T14:13:21.409Z,3.20
2023-09-16T14:15:48.097Z,2.58
2023-09-16T14:18:15.914Z,3.43
2023-09-16T14:20:42.532Z,3.50
2023-09-16T14:23:09.212Z,2.78
2023-09-16T14:25:36.201Z,4.22
2023-09-16T14:28:04.324Z,2.90
2023-09-16T14:30:32.958Z,4.10
2023-09-16T14:32:59.928Z,3.25
2023-09-16T14:35:26.701Z,5.30
2023-09-16T14:37:56.349Z,4.88
2023-09-16T14:40:23.654Z,2.72
2023-09-16T14:42:50.371Z,3.63
2023-09-16T14:45:16.932Z,3.05
2023-09-16T14:47:46.326Z,4.25
2023-09-16T14:50:13.320Z,6.10
2023-09-16T14:52:41.837Z,3.60
2023-09-16T14:55:11.133Z,5.07
2023-09-16T14:57:38.668Z,3.05
2023-09-16T15:00:09.609Z,2.90
2023-09-16T15:02:37.711Z,6.03
2023-09-16T15:05:05.175Z,3.00
2023-09-16T15:07:31.812Z,2.80
2023-09-16T15:09:58.572Z,2.90
2023-09-16T15:12:25.266Z,2.90
2023-09-16T15:14:52.780Z,3.30
2023-09-16T15:17:19.569Z,4.70
2023-09-16T15:19:46.278Z,4.27
2023-09-16T15:22:13.045Z,6.38
2023-09-16T15:24:39.757Z,4.85
2023-09-16T15:27:06.356Z,3.65
2023-09-16T15:29:32.918Z,3.90
2023-09-16T15:32:16.427Z,6.10
2023-09-16T15:34:46.043Z,3.72
2023-09-16T15:37:12.689Z,8.52
2023-09-16T15:39:39.328Z,5.35
2023-09-16T15:42:05.951Z,3.65
2023-09-16T15:44:32.572Z,4.50
2023-09-16T15:47:01.985Z,3.47
2023-09-16T15:49:30.216Z,3.78
2023-09-16T15:51:56.857Z,7.55
2023-09-16T15:54:26.197Z,5.45
2023-09-16T15:56:53.153Z,4.60
2023-09-16T15:59:19.702Z,5.40
2023-09-16T16:01:46.412Z,3.92
2023-09-16T16:04:13.236Z,3.63
2023-09-16T16:06:41.064Z,6.00
2023-09-16T16:09:10.159Z,4.07
2023-09-16T16:11:36.906Z,4.72
2023-09-16T16:14:03.683Z,3.83
2023-09-16T16:16:30.646Z,3.85
2023-09-16T16:18:58.064Z,14.00
2023-09-16T16:21:24.744Z,5.13
2023-09-16T16:23:51.679Z,5.00
2023-09-16T16:26:18.637Z,5.30
2023-09-16T16:28:45.510Z,4.13
2023-09-16T16:31:12.185Z,4.57
2023-09-16T16:33:38.838Z,5.20
2023-09-16T16:36:05.516Z,5.90
2023-09-16T16:38:32.081Z,4.30
2023-09-16T16:40:58.763Z,4.50
2023-09-16T16:43:25.383Z,4.65
2023-09-16T16:45:52.005Z,5.07
2023-09-16T16:48:18.933Z,4.63
2023-09-16T16:50:45.768Z,5.05
2023-09-16T16:53:13.219Z,6.82
2023-09-16T16:55:40.231Z,6.72
2023-09-16T16:58:06.979Z,11.93
2023-09-16T17:00:33.620Z,5.60
2023-09-16T17:03:00.793Z,10.82
2023-09-16T17:05:28.527Z,6.60
2023-09-16T17:07:57.933Z,9.43
2023-09-16T17:10:24.897Z,7.03
2023-09-16T17:12:51.614Z,10.95
2023-09-16T17:15:18.195Z,9.77
2023-09-16T17:17:44.908Z,7.20
2023-09-16T17:20:11.638Z,8.32
2023-09-16T17:22:38.337Z,8.07
2023-09-16T17:25:05.637Z,5.40
2023-09-16T17:27:32.503Z,8.48
2023-09-16T17:29:59.196Z,5.53
2023-09-16T17:32:25.839Z,5.95
2023-09-16T17:34:52.361Z,5.47
2023-09-16T17:37:19.029Z,6.53
2023-09-16T17:39:45.861Z,6.07
2023-09-16T17:42:12.501Z,8.32
2023-09-16T17:44:39.688Z,7.50
2023-09-16T17:47:06.298Z,7.60
2023-09-16T17:49:33.217Z,8.82
2023-09-16T17:52:00.333Z,7.93
2023-09-16T17:54:27.230Z,7.90
2023-09-16T17:56:53.987Z,9.38
2023-09-16T17:59:20.651Z,6.53
2023-09-16T18:01:47.885Z,7.80
2023-09-16T18:04:14.649Z,7.32
2023-09-16T18:06:42.529Z,9.10
2023-09-16T18:09:11.127Z,13.38
2023-09-16T18:11:38.275Z,9.93
2023-09-16T18:14:05.189Z,12.20
2023-09-16T18:16:32.887Z,14.10
2023-09-16T18:18:59.816Z,17.30
2023-09-16T18:21:26.602Z,20.77
2023-09-16T18:23:53.425Z,15.27
2023-09-16T18:26:20.125Z,10.07
2023-09-16T18:28:46.774Z,7.63
2023-09-16T18:31:14.789Z,9.32
2023-09-16T18:33:41.485Z,7.90
2023-09-16T18:36:08.296Z,7.53
2023-09-16T18:38:34.972Z,6.55
2023-09-16T18:41:01.659Z,7.90
2023-09-16T18:43:28.381Z,7.78
2023-09-16T18:45:55.677Z,7.75
2023-09-16T18:48:22.290Z,9.50
2023-09-16T18:50:48.885Z,9.70
2023-09-16T18:53:15.512Z,8.80
2023-09-16T18:55:45.443Z,7.65
2023-09-16T18:58:14.079Z,8.32
2023-09-16T19:00:41.623Z,8.73
2023-09-16T19:03:08.994Z,8.43
2023-09-16T19:05:39.978Z,11.95
2023-09-16T19:08:07.647Z,7.63
2023-09-16T19:10:34.432Z,8.40
2023-09-16T19:13:01.266Z,8.00
2023-09-16T19:15:27.930Z,7.78
2023-09-16T19:17:54.629Z,8.15
2023-09-16T19:20:21.316Z,7.45
2023-09-16T19:22:48.086Z,9.00
2023-09-16T19:25:14.799Z,7.63
2023-09-16T19:27:41.841Z,8.98
2023-09-16T19:30:09.397Z,9.98
2023-09-16T19:32:36.290Z,8.27
2023-09-16T19:35:04.304Z,8.30
2023-09-16T19:37:31.127Z,10.00
2023-09-16T19:39:58.576Z,8.02
2023-09-16T19:42:25.304Z,8.60
2023-09-16T19:44:54.939Z,8.35
2023-09-16T19:47:25.366Z,7.53
2023-09-16T19:49:53.258Z,8.63
2023-09-16T19:52:20.614Z,10.02
2023-09-16T19:54:47.327Z,9.13
2023-09-16T19:57:14.213Z,9.25
2023-09-16T19:59:40.912Z,9.63
2023-09-16T20:02:07.486Z,9.20
2023-09-16T20:04:34.151Z,10.20
2023-09-16T20:07:01.799Z,10.30
2023-09-16T20:09:28.927Z,10.35
2023-09-16T20:11:55.765Z,10.40
2023-09-16T20:14:22.375Z,10.47
2023-09-16T20:16:49.032Z,10.60
2023-09-16T20:19:18.948Z,10.48
2023-09-16T20:21:47.580Z,10.38
2023-09-16T20:24:14.101Z,9.60
2023-09-16T20:26:40.760Z,10.40
2023-09-16T20:29:07.576Z,10.02
2023-09-16T20:31:34.895Z,10.50
2023-09-16T20:34:10.848Z,10.00
2023-09-16T20:36:38.842Z,10.35
2023-09-16T20:39:08.006Z,9.27
2023-09-16T20:41:34.848Z,8.95
2023-09-16T20:44:05.577Z,9.90
2023-09-16T20:46:32.291Z,11.35
2023-09-16T20:48:59.023Z,8.32
2023-09-16T20:51:25.598Z,9.43
2023-09-16T20:53:52.613Z,9.30
2023-09-16T20:56:19.472Z,9.60
2023-09-16T20:58:46.273Z,8.75
2023-09-16T21:01:13.920Z,9.82
2023-09-16T21:03:41.659Z,11.27
2023-09-16T21:06:08.661Z,9.82
2023-09-16T21:08:35.246Z,10.60
2023-09-16T21:11:01.886Z,10.75
2023-09-16T21:13:28.519Z,11.05
2023-09-16T21:15:55.226Z,11.50
2023-09-16T21:18:22.428Z,12.07
2023-09-16T21:20:49.125Z,13.07
2023-09-16T21:23:15.766Z,12.30
2023-09-16T21:25:42.638Z,13.57
2023-09-16T21:28:09.230Z,12.63
2023-09-16T21:30:35.897Z,13.23
2023-09-16T21:33:02.832Z,12.48
2023-09-16T21:35:30.267Z,12.73
2023-09-16T21:37:57.054Z,12.88
2023-09-16T21:40:25.476Z,11.80
2023-09-16T21:42:53.597Z,13.77
2023-09-16T21:45:20.636Z,13.13
2023-09-16T21:47:47.270Z,14.02
2023-09-16T21:50:13.932Z,12.75
2023-09-16T21:52:40.628Z,13.27
2023-09-16T21:55:07.836Z,11.85
2023-09-16T21:57:34.441Z,13.27
2023-09-16T22:00:01.736Z,12.38
2023-09-16T22:02:28.467Z,12.52
2023-09-16T22:04:55.087Z,12.73
2023-09-16T22:07:21.787Z,12.85
2023-09-16T22:09:48.644Z,13.10
2023-09-16T22:12:15.280Z,13.25
2023-09-16T22:14:41.805Z,14.80
2023-09-16T22:17:08.393Z,12.97
2023-09-16T22:19:35.019Z,13.48
2023-09-16T22:22:01.605Z,13.95
2023-09-16T22:24:28.140Z,13.02
2023-09-16T22:26:54.689Z,13.38
2023-09-16T22:29:21.296Z,13.73
2023-09-16T22:31:48.030Z,12.63
2023-09-16T22:34:14.721Z,13.30
2023-09-16T22:36:41.253Z,12.48
2023-09-16T22:39:09.522Z,14.15
2023-09-16T22:41:36.465Z,14.47
2023-09-16T22:44:04.009Z,14.10
2023-09-16T22:46:31.078Z,12.50
2023-09-16T22:48:58.165Z,13.32
2023-09-16T22:51:24.685Z,14.43
2023-09-16T22:53:51.543Z,12.70
2023-09-16T22:56:18.270Z,13.73
2023-09-16T22:58:45.927Z,12.43
2023-09-16T23:01:12.988Z,13.02
2023-09-16T23:03:39.946Z,13.85
2023-09-16T23:06:06.612Z,13.40
2023-09-16T23:08:33.316Z,16.30
2023-09-16T23:11:00.004Z,14.65
2023-09-16T23:13:26.629Z,13.35
2023-09-16T23:15:53.283Z,13.38
2023-09-16T23:18:19.852Z,13.47
2023-09-16T23:20:57.310Z,14.13
2023-09-16T23:23:24.061Z,13.88
2023-09-16T23:25:50.607Z,15.65
2023-09-16T23:28:17.219Z,14.38
2023-09-16T23:30:43.960Z,17.87
2023-09-16T23:33:10.775Z,15.23
2023-09-16T23:35:37.394Z,14.95
2023-09-16T23:38:04.469Z,15.50
2023-09-16T23:40:31.216Z,15.85
2023-09-16T23:42:58.370Z,15.63
2023-09-16T23:45:24.927Z,15.18
2023-09-16T23:47:51.473Z,14.60
2023-09-16T23:50:18.158Z,15.80
2023-09-16T23:52:44.764Z,15.80
2023-09-16T23:55:11.427Z,15.80
2023-09-16T23:57:37.989Z,21.55
